createdAt,value
2018-12-22T00:01:59.274Z,37.50
2018-12-22T00:04:26.760Z,31.37
2018-12-22T00:06:54.240Z,29.90
2018-12-22T00:09:21.690Z,59.10
2018-12-22T00:11:49.188Z,11.70
2018-12-22T00:14:16.668Z,23.00
2018-12-22T00:16:44.114Z,47.20
2018-12-22T00:19:11.586Z,39.47
2018-12-22T00:21:39.051Z,35.77
2018-12-22T00:24:06.510Z,21.03
2018-12-22T00:26:34.020Z,27.27
2018-12-22T00:29:01.481Z,48.50
2018-12-22T00:31:28.959Z,46.37
2018-12-22T00:33:56.490Z,44.80
2018-12-22T00:36:23.979Z,30.03
2018-12-22T00:38:51.462Z,60.40
2018-12-22T00:41:18.944Z,62.97
2018-12-22T00:43:46.397Z,29.50
2018-12-22T00:46:13.866Z,53.30
2018-12-22T00:48:41.345Z,21.67
2018-12-22T00:51:08.838Z,31.70
2018-12-22T00:53:36.306Z,32.87
2018-12-22T00:56:03.771Z,39.27
2018-12-22T00:58:31.298Z,36.77
2018-12-22T01:00:58.773Z,38.00
2018-12-22T01:03:26.244Z,31.40
2018-12-22T01:05:53.716Z,30.37
2018-12-22T01:08:21.194Z,37.00
2018-12-22T01:10:48.655Z,38.13
2018-12-22T01:13:16.138Z,52.07
2018-12-22T01:15:43.666Z,18.43
2018-12-22T01:18:11.152Z,19.90
2018-12-22T01:20:38.615Z,66.57
2018-12-22T01:23:06.125Z,38.60
2018-12-22T01:25:33.677Z,33.77
2018-12-22T01:28:01.139Z,35.63
2018-12-22T01:30:28.626Z,27.57
2018-12-22T01:32:56.075Z,44.27
2018-12-22T01:35:23.541Z,35.10
2018-12-22T01:37:51.017Z,46.10
2018-12-22T01:40:18.471Z,51.30
2018-12-22T01:42:45.976Z,46.93
2018-12-22T01:45:13.418Z,41.13
2018-12-22T01:47:40.895Z,42.67
2018-12-22T01:50:08.453Z,55.03
2018-12-22T01:52:35.974Z,49.20
2018-12-22T01:55:05.110Z,32.13
2018-12-22T01:57:32.580Z,44.23
2018-12-22T02:00:00.101Z,31.77
2018-12-22T02:02:27.671Z,44.87
2018-12-22T02:04:55.150Z,35.00
2018-12-22T02:07:22.598Z,41.77
2018-12-22T02:09:50.075Z,25.10
2018-12-22T02:12:17.531Z,44.37
2018-12-22T02:14:45.958Z,32.37
2018-12-22T02:17:13.437Z,42.13
2018-12-22T02:19:40.885Z,28.63
2018-12-22T02:22:08.362Z,19.00
2018-12-22T02:24:35.871Z,15.20
2018-12-22T02:27:03.345Z,23.03
2018-12-22T02:29:30.804Z,29.33
2018-12-22T02:31:58.494Z,31.57
2018-12-22T02:34:25.998Z,41.40
2018-12-22T02:36:53.478Z,48.93
2018-12-22T02:39:20.951Z,47.67
2018-12-22T02:41:48.439Z,35.67
2018-12-22T02:44:15.894Z,30.60
2018-12-22T02:46:43.368Z,29.37
2018-12-22T02:49:10.841Z,37.53
2018-12-22T02:51:38.360Z,32.73
2018-12-22T02:54:05.966Z,36.07
2018-12-22T02:56:33.481Z,35.23
2018-12-22T02:59:05.880Z,25.60
2018-12-22T03:01:30.469Z,43.70
2018-12-22T03:03:57.946Z,32.83
2018-12-22T03:06:25.413Z,33.03
2018-12-22T03:08:52.893Z,25.97
2018-12-22T03:11:20.362Z,39.53
2018-12-22T03:13:47.921Z,29.60
2018-12-22T03:16:15.474Z,39.40
2018-12-22T03:18:42.934Z,39.43
2018-12-22T03:21:10.409Z,56.27
2018-12-22T03:23:37.889Z,48.80
2018-12-22T03:26:05.372Z,31.60
2018-12-22T03:28:32.846Z,40.43
2018-12-22T03:31:00.322Z,53.07
2018-12-22T03:33:27.901Z,53.73
2018-12-22T03:35:55.450Z,46.93
2018-12-22T03:38:22.935Z,51.30
2018-12-22T03:40:50.396Z,26.83
2018-12-22T03:43:17.876Z,18.47
2018-12-22T03:45:45.441Z,37.73
2018-12-22T03:48:12.898Z,42.33
2018-12-22T03:50:40.372Z,30.27
2018-12-22T03:53:07.830Z,34.97
2018-12-22T03:55:35.297Z,33.83
2018-12-22T03:58:02.746Z,56.60
2018-12-22T04:00:30.217Z,26.40
2018-12-22T04:02:57.677Z,24.20
2018-12-22T04:05:25.401Z,24.27
2018-12-22T04:07:52.945Z,33.83
2018-12-22T04:10:20.463Z,22.80
2018-12-22T04:12:48.115Z,41.27
2018-12-22T04:15:15.647Z,25.27
2018-12-22T04:17:43.130Z,25.43
2018-12-22T04:20:10.614Z,14.80
2018-12-22T04:22:38.110Z,12.90
2018-12-22T04:25:05.604Z,17.60
2018-12-22T04:27:33.090Z,10.07
2018-12-22T04:30:00.542Z,17.37
2018-12-22T04:32:28.026Z,5.57
2018-12-22T04:34:55.468Z,18.93
2018-12-22T04:37:22.945Z,4.37
2018-12-22T04:39:50.414Z,14.07
2018-12-22T04:42:17.882Z,13.23
2018-12-22T04:44:45.345Z,8.17
2018-12-22T04:47:12.814Z,12.80
2018-12-22T04:49:40.337Z,7.17
2018-12-22T04:52:07.822Z,14.13
2018-12-22T04:54:35.288Z,10.57
2018-12-22T04:57:02.795Z,9.73
2018-12-22T04:59:30.275Z,8.77
2018-12-22T05:01:57.774Z,10.70
2018-12-22T05:04:25.226Z,13.40
2018-12-22T05:06:52.679Z,13.30
2018-12-22T05:09:20.158Z,13.20
2018-12-22T05:11:47.619Z,8.13
2018-12-22T05:14:15.098Z,11.73
2018-12-22T05:16:42.596Z,9.37
2018-12-22T05:19:10.054Z,19.27
2018-12-22T05:21:37.508Z,9.57
2018-12-22T05:24:04.981Z,9.90
2018-12-22T05:26:32.464Z,7.20
2018-12-22T05:28:59.950Z,29.73
2018-12-22T05:31:27.407Z,11.00
2018-12-22T05:33:54.900Z,16.33
2018-12-22T05:36:22.359Z,10.33
2018-12-22T05:38:49.850Z,9.97
2018-12-22T05:41:17.339Z,11.73
2018-12-22T05:43:44.814Z,16.93
2018-12-22T05:46:12.293Z,4.53
2018-12-22T05:48:39.778Z,10.00
2018-12-22T05:51:07.262Z,6.47
2018-12-22T05:53:34.805Z,5.93
2018-12-22T05:56:02.294Z,14.03
2018-12-22T05:58:29.758Z,7.90
2018-12-22T06:00:57.274Z,10.83
2018-12-22T06:03:24.745Z,21.63
2018-12-22T06:05:52.235Z,6.97
2018-12-22T06:08:19.699Z,7.30
2018-12-22T06:10:47.181Z,8.40
2018-12-22T06:13:14.663Z,5.63
2018-12-22T06:15:42.177Z,14.87
2018-12-22T06:18:09.833Z,12.43
2018-12-22T06:20:37.305Z,10.63
2018-12-22T06:23:04.782Z,11.80
2018-12-22T06:25:32.242Z,8.67
2018-12-22T06:27:59.847Z,10.80
2018-12-22T06:30:27.302Z,15.07
2018-12-22T06:32:54.766Z,8.07
2018-12-22T06:35:22.239Z,4.33
2018-12-22T06:37:49.754Z,7.20
2018-12-22T06:40:17.210Z,9.60
2018-12-22T06:42:44.686Z,17.13
2018-12-22T06:45:12.194Z,15.50
2018-12-22T06:47:39.675Z,10.90
2018-12-22T06:50:07.234Z,4.53
2018-12-22T06:52:34.706Z,10.50
2018-12-22T06:55:02.160Z,34.37
2018-12-22T06:57:29.710Z,7.53
2018-12-22T06:59:57.564Z,9.10
2018-12-22T07:02:25.064Z,7.53
2018-12-22T07:04:52.648Z,2.13
2018-12-22T07:07:20.090Z,3.30
2018-12-22T07:09:47.555Z,6.07
2018-12-22T07:12:15.032Z,8.70
2018-12-22T07:14:42.497Z,5.73
2018-12-22T07:17:09.942Z,3.73
2018-12-22T07:19:37.431Z,16.07
2018-12-22T07:22:04.878Z,5.43
2018-12-22T07:24:32.346Z,5.60
2018-12-22T07:26:59.813Z,6.90
2018-12-22T07:29:27.299Z,5.07
2018-12-22T07:31:54.755Z,4.30
2018-12-22T07:34:22.266Z,5.87
2018-12-22T07:36:49.737Z,8.10
2018-12-22T07:39:17.213Z,5.70
2018-12-22T07:41:44.706Z,19.20
2018-12-22T07:44:12.385Z,12.17
2018-12-22T07:46:40.247Z,10.20
2018-12-22T07:49:07.886Z,7.70
2018-12-22T07:51:36.425Z,7.17
2018-12-22T07:54:04.040Z,11.03
2018-12-22T07:56:31.744Z,5.77
2018-12-22T07:58:59.367Z,12.87
2018-12-22T08:01:26.915Z,5.73
2018-12-22T08:03:54.531Z,12.20
2018-12-22T08:06:22.142Z,10.53
2018-12-22T08:08:49.814Z,8.63
2018-12-22T08:11:17.369Z,8.90
2018-12-22T08:13:45.060Z,12.33
2018-12-22T08:16:12.545Z,25.27
2018-12-22T08:18:40.289Z,4.30
2018-12-22T08:21:07.806Z,8.10
2018-12-22T08:23:35.282Z,11.30
2018-12-22T08:26:02.753Z,8.23
2018-12-22T08:28:30.406Z,6.53
2018-12-22T08:30:57.930Z,15.20
2018-12-22T08:33:25.389Z,9.43
2018-12-22T08:35:53.063Z,21.50
2018-12-22T08:38:20.572Z,7.23
2018-12-22T08:40:48.066Z,9.20
2018-12-22T08:43:15.776Z,10.37
2018-12-22T08:45:43.316Z,7.87
2018-12-22T08:48:10.815Z,12.77
2018-12-22T08:50:38.570Z,2.50
2018-12-22T08:53:06.073Z,4.93
2018-12-22T08:55:34.036Z,15.40
2018-12-22T08:58:01.766Z,3.60
2018-12-22T09:00:29.551Z,9.90
2018-12-22T09:02:57.050Z,18.37
2018-12-22T09:05:24.532Z,5.37
2018-12-22T09:07:52.090Z,10.43
2018-12-22T09:10:19.629Z,6.87
2018-12-22T09:12:47.171Z,16.77
2018-12-22T09:15:14.642Z,4.13
2018-12-22T09:17:42.090Z,4.23
2018-12-22T09:20:09.733Z,8.90
2018-12-22T09:22:37.321Z,4.07
2018-12-22T09:25:06.795Z,5.90
2018-12-22T09:27:34.354Z,4.93
2018-12-22T09:30:02.875Z,4.57
2018-12-22T09:32:30.434Z,11.27
2018-12-22T09:34:57.905Z,3.73
2018-12-22T09:37:25.411Z,7.13
2018-12-22T09:39:52.898Z,15.30
2018-12-22T09:42:20.352Z,8.03
2018-12-22T09:44:47.838Z,8.50
2018-12-22T09:47:15.383Z,22.03
2018-12-22T09:49:42.974Z,4.13
2018-12-22T09:52:10.456Z,6.60
2018-12-22T09:54:37.972Z,6.97
2018-12-22T09:57:05.883Z,51.80
2018-12-22T09:59:33.354Z,6.80
2018-12-22T10:02:00.807Z,5.90
2018-12-22T10:04:28.329Z,10.30
2018-12-22T10:06:55.815Z,8.43
2018-12-22T10:09:23.275Z,6.20
2018-12-22T10:11:50.760Z,9.97
2018-12-22T10:14:18.219Z,10.57
2018-12-22T10:16:45.698Z,5.97
2018-12-22T10:19:13.186Z,3.37
2018-12-22T10:21:40.646Z,6.83
2018-12-22T10:24:08.327Z,19.97
2018-12-22T10:26:35.822Z,5.90
2018-12-22T10:29:03.325Z,31.37
2018-12-22T10:31:30.765Z,8.50
2018-12-22T10:33:58.247Z,13.83
2018-12-22T10:36:25.758Z,15.90
2018-12-22T10:38:53.229Z,7.00
2018-12-22T10:41:20.736Z,13.53
2018-12-22T10:43:48.192Z,7.10
2018-12-22T10:46:15.642Z,19.00
2018-12-22T10:48:43.118Z,6.57
2018-12-22T10:51:10.616Z,9.10
2018-12-22T10:53:38.149Z,14.90
2018-12-22T10:56:05.645Z,14.20
2018-12-22T10:58:33.213Z,3.27
2018-12-22T11:01:00.670Z,10.97
2018-12-22T11:03:28.133Z,14.90
2018-12-22T11:05:55.607Z,8.13
2018-12-22T11:08:23.092Z,7.27
2018-12-22T11:10:50.586Z,9.80
2018-12-22T11:13:18.098Z,2.87
2018-12-22T11:15:45.555Z,3.40
2018-12-22T11:18:13.032Z,7.73
2018-12-22T11:20:40.586Z,10.10
2018-12-22T11:23:08.024Z,9.13
2018-12-22T11:25:35.490Z,2.63
2018-12-22T11:28:02.941Z,5.60
2018-12-22T11:30:30.610Z,16.60
2018-12-22T11:32:58.068Z,10.43
2018-12-22T11:35:25.622Z,14.03
2018-12-22T11:37:53.330Z,13.27
2018-12-22T11:40:21.299Z,10.23
2018-12-22T11:42:49.197Z,6.97
2018-12-22T11:45:17.135Z,9.97
2018-12-22T11:47:47.943Z,4.80
2018-12-22T11:50:20.852Z,11.63
2018-12-22T11:52:48.342Z,4.93
2018-12-22T11:55:15.999Z,2.57
2018-12-22T11:57:43.454Z,9.70
2018-12-22T12:00:11.014Z,9.33
2018-12-22T12:02:38.490Z,4.37
2018-12-22T12:05:08.768Z,6.37
2018-12-22T12:07:36.305Z,11.43
2018-12-22T12:10:06.913Z,8.50
2018-12-22T12:12:34.581Z,6.13
2018-12-22T12:15:02.482Z,6.40
2018-12-22T12:17:35.116Z,7.90
2018-12-22T12:20:02.867Z,2.20
2018-12-22T12:22:30.306Z,3.30
2018-12-22T12:24:57.945Z,6.10
2018-12-22T12:27:25.476Z,3.47
2018-12-22T12:29:53.075Z,10.00
2018-12-22T12:32:20.900Z,10.00
2018-12-22T12:34:48.788Z,8.80
2018-12-22T12:37:16.988Z,5.73
2018-12-22T12:39:44.835Z,9.67
2018-12-22T12:42:13.424Z,5.37
2018-12-22T12:44:42.287Z,2.77
2018-12-22T12:47:10.128Z,9.83
2018-12-22T12:49:37.587Z,3.87
2018-12-22T12:52:05.127Z,17.73
2018-12-22T12:54:33.441Z,16.50
2018-12-22T12:57:00.922Z,10.87
2018-12-22T12:59:28.378Z,15.37
2018-12-22T13:02:00.973Z,12.97
2018-12-22T13:04:25.623Z,16.63
2018-12-22T13:06:53.123Z,7.27
2018-12-22T13:09:20.605Z,8.93
2018-12-22T13:11:48.091Z,7.50
2018-12-22T13:14:15.534Z,7.83
2018-12-22T13:16:42.988Z,7.70
2018-12-22T13:19:10.455Z,7.93
2018-12-22T13:21:37.936Z,4.67
2018-12-22T13:24:05.411Z,11.47
2018-12-22T13:26:36.706Z,10.53
2018-12-22T13:29:02.356Z,3.30
2018-12-22T13:31:30.029Z,7.77
2018-12-22T13:33:57.634Z,6.50
2018-12-22T13:36:25.074Z,5.10
2018-12-22T13:38:52.748Z,9.00
2018-12-22T13:41:20.281Z,6.00
2018-12-22T13:43:47.782Z,7.47
2018-12-22T13:46:15.266Z,11.63
2018-12-22T13:48:42.883Z,10.00
2018-12-22T13:51:10.770Z,10.77
2018-12-22T13:53:38.275Z,7.73
2018-12-22T13:56:05.746Z,5.23
2018-12-22T13:58:33.377Z,13.57
2018-12-22T14:01:00.936Z,8.10
2018-12-22T14:03:28.456Z,4.93
2018-12-22T14:05:55.918Z,16.43
2018-12-22T14:08:23.434Z,21.83
2018-12-22T14:10:50.917Z,11.67
2018-12-22T14:13:18.367Z,2.80
2018-12-22T14:15:47.252Z,9.23
2018-12-22T14:18:26.486Z,17.93
2018-12-22T14:20:54.011Z,5.53
2018-12-22T14:23:23.968Z,3.10
2018-12-22T14:25:51.450Z,8.50
2018-12-22T14:28:18.901Z,4.93
2018-12-22T14:30:46.378Z,16.23
2018-12-22T14:33:13.834Z,10.97
2018-12-22T14:35:41.479Z,11.53
2018-12-22T14:38:09.031Z,6.00
2018-12-22T14:40:36.678Z,8.30
2018-12-22T14:43:04.146Z,2.53
2018-12-22T14:45:31.627Z,5.40
2018-12-22T14:47:59.127Z,8.40
2018-12-22T14:50:26.605Z,7.23
2018-12-22T14:52:54.066Z,11.57
2018-12-22T14:55:21.560Z,10.83
2018-12-22T14:57:53.987Z,3.07
2018-12-22T15:00:21.510Z,3.67
2018-12-22T15:02:49.050Z,16.13
2018-12-22T15:05:16.569Z,12.53
2018-12-22T15:07:44.043Z,9.80
2018-12-22T15:10:11.574Z,15.60
2018-12-22T15:12:39.014Z,14.27
2018-12-22T15:15:11.016Z,4.63
2018-12-22T15:17:41.278Z,7.03
2018-12-22T15:20:28.440Z,2.80
2018-12-22T15:22:56.009Z,11.00
2018-12-22T15:25:23.627Z,13.93
2018-12-22T15:27:51.286Z,8.93
2018-12-22T15:30:18.767Z,12.77
2018-12-22T15:32:54.407Z,13.07
2018-12-22T15:35:15.922Z,12.83
2018-12-22T15:37:43.386Z,13.07
2018-12-22T15:40:11.093Z,11.90
2018-12-22T15:42:38.757Z,10.37
2018-12-22T15:45:10.994Z,14.60
2018-12-22T15:47:38.486Z,10.77
2018-12-22T15:50:09.899Z,15.40
2018-12-22T15:52:37.413Z,6.23
2018-12-22T15:55:07.399Z,11.23
2018-12-22T15:57:34.933Z,11.77
2018-12-22T16:00:03.095Z,3.90
2018-12-22T16:02:30.635Z,10.60
2018-12-22T16:04:58.288Z,6.83
2018-12-22T16:07:25.767Z,4.70
2018-12-22T16:09:53.336Z,12.60
2018-12-22T16:12:21.077Z,12.73
2018-12-22T16:14:48.628Z,16.20
2018-12-22T16:17:16.797Z,8.03
2018-12-22T16:19:44.340Z,7.33
2018-12-22T16:22:11.906Z,8.30
2018-12-22T16:24:39.366Z,8.57
2018-12-22T16:27:06.932Z,11.63
2018-12-22T16:29:34.987Z,3.60
2018-12-22T16:32:02.527Z,2.90
2018-12-22T16:34:30.622Z,10.90
2018-12-22T16:36:58.179Z,20.57
2018-12-22T16:39:25.847Z,9.90
2018-12-22T16:41:53.407Z,24.10
2018-12-22T16:44:21.040Z,19.93
2018-12-22T16:46:48.780Z,6.57
2018-12-22T16:49:16.340Z,8.80
2018-12-22T16:51:43.780Z,10.93
2018-12-22T16:54:11.459Z,7.07
2018-12-22T16:56:38.932Z,5.97
2018-12-22T16:59:06.527Z,9.00
2018-12-22T17:01:37.410Z,13.67
2018-12-22T17:04:05.828Z,11.27
2018-12-22T17:06:33.618Z,19.20
2018-12-22T17:09:01.145Z,16.00
2018-12-22T17:11:28.627Z,16.03
2018-12-22T17:13:56.225Z,14.97
2018-12-22T17:16:23.723Z,13.53
2018-12-22T17:18:51.311Z,11.83
2018-12-22T17:21:21.265Z,18.40
2018-12-22T17:23:52.854Z,23.57
2018-12-22T17:26:22.146Z,10.00
2018-12-22T17:28:49.666Z,20.60
2018-12-22T17:31:17.771Z,14.93
2018-12-22T17:33:45.739Z,11.87
2018-12-22T17:36:13.193Z,25.70
2018-12-22T17:38:40.666Z,15.67
2018-12-22T17:41:08.154Z,21.67
2018-12-22T17:43:37.145Z,21.97
2018-12-22T17:46:04.711Z,21.63
2018-12-22T17:48:32.186Z,25.57
2018-12-22T17:50:59.650Z,13.33
2018-12-22T17:53:27.135Z,28.60
2018-12-22T17:55:54.595Z,23.83
2018-12-22T17:58:22.069Z,29.63
2018-12-22T18:00:49.602Z,18.40
2018-12-22T18:03:17.226Z,14.83
2018-12-22T18:05:44.819Z,11.70
2018-12-22T18:08:12.288Z,7.43
2018-12-22T18:10:39.738Z,15.70
2018-12-22T18:13:07.220Z,13.97
2018-12-22T18:15:34.810Z,31.80
2018-12-22T18:18:02.269Z,12.30
2018-12-22T18:20:29.841Z,23.40
2018-12-22T18:22:57.294Z,25.17
2018-12-22T18:25:24.801Z,13.63
2018-12-22T18:27:53.517Z,27.17
2018-12-22T18:30:21.128Z,36.20
2018-12-22T18:32:48.750Z,30.00
2018-12-22T18:35:16.243Z,6.33
2018-12-22T18:37:43.724Z,10.47
2018-12-22T18:40:14.814Z,17.95
2018-12-22T18:42:43.670Z,16.43
2018-12-22T18:45:11.832Z,19.63
2018-12-22T18:47:39.821Z,12.73
2018-12-22T18:50:19.006Z,15.73
2018-12-22T18:52:46.498Z,14.27
2018-12-22T18:55:14.035Z,23.47
2018-12-22T18:57:41.618Z,12.77
2018-12-22T19:00:20.101Z,19.03
2018-12-22T19:02:47.690Z,12.20
2018-12-22T19:05:16.625Z,27.27
2018-12-22T19:07:44.085Z,31.37
2018-12-22T19:10:16.211Z,13.83
2018-12-22T19:12:43.650Z,8.00
2018-12-22T19:15:11.275Z,9.93
2018-12-22T19:17:38.727Z,31.10
2018-12-22T19:20:10.135Z,17.80
2018-12-22T19:22:37.579Z,11.53
2018-12-22T19:25:06.962Z,26.77
2018-12-22T19:27:34.421Z,25.93
2018-12-22T19:30:01.898Z,5.43
2018-12-22T19:32:29.407Z,23.30
2018-12-22T19:34:56.850Z,15.70
2018-12-22T19:37:24.333Z,8.50
2018-12-22T19:39:51.821Z,33.10
2018-12-22T19:42:20.177Z,33.27
2018-12-22T19:44:47.708Z,28.93
2018-12-22T19:47:16.377Z,22.77
2018-12-22T19:49:43.889Z,32.87
2018-12-22T19:52:11.333Z,14.13
2018-12-22T19:54:38.825Z,6.80
2018-12-22T19:57:06.317Z,29.83
2018-12-22T19:59:33.888Z,19.07
2018-12-22T20:02:01.613Z,20.30
2018-12-22T20:04:29.296Z,16.23
2018-12-22T20:06:57.037Z,13.63
2018-12-22T20:09:24.747Z,9.33
2018-12-22T20:11:52.582Z,7.70
2018-12-22T20:14:20.126Z,13.30
2018-12-22T20:16:47.797Z,19.10
2018-12-22T20:19:16.276Z,9.93
2018-12-22T20:21:44.123Z,5.87
2018-12-22T20:24:11.860Z,23.03
2018-12-22T20:26:39.510Z,11.63
2018-12-22T20:29:06.984Z,9.10
2018-12-22T20:31:34.724Z,5.33
2018-12-22T20:34:10.849Z,12.97
2018-12-22T20:36:32.129Z,6.03
2018-12-22T20:38:59.905Z,16.10
2018-12-22T20:41:27.578Z,12.70
2018-12-22T20:43:55.226Z,11.00
2018-12-22T20:46:22.946Z,20.40
2018-12-22T20:48:50.465Z,19.77
2018-12-22T20:51:18.168Z,26.60
2018-12-22T20:53:45.809Z,13.17
2018-12-22T20:56:13.316Z,20.27
2018-12-22T20:58:41.033Z,11.53
2018-12-22T21:01:08.719Z,16.43
2018-12-22T21:03:39.685Z,25.27
2018-12-22T21:06:12.131Z,15.50
2018-12-22T21:08:39.775Z,19.80
2018-12-22T21:11:07.307Z,27.00
2018-12-22T21:13:35.960Z,18.97
2018-12-22T21:16:03.803Z,21.00
2018-12-22T21:18:31.418Z,16.03
2018-12-22T21:21:00.568Z,17.70
2018-12-22T21:23:28.206Z,20.47
2018-12-22T21:25:55.702Z,13.53
2018-12-22T21:28:23.489Z,28.37
2018-12-22T21:30:50.999Z,22.73
2018-12-22T21:33:19.622Z,32.90
2018-12-22T21:35:53.183Z,29.47
2018-12-22T21:38:18.427Z,40.67
2018-12-22T21:40:46.679Z,13.67
2018-12-22T21:43:14.482Z,25.17
2018-12-22T21:45:42.161Z,21.33
2018-12-22T21:48:10.048Z,28.20
2018-12-22T21:50:37.591Z,21.27
2018-12-22T21:53:05.358Z,20.43
2018-12-22T21:55:32.876Z,20.20
2018-12-22T21:58:00.334Z,24.17
2018-12-22T22:00:27.787Z,16.17
2018-12-22T22:02:55.267Z,20.47
2018-12-22T22:05:23.742Z,27.23
2018-12-22T22:07:51.228Z,21.40
2018-12-22T22:10:18.669Z,30.13
2018-12-22T22:12:46.122Z,24.07
2018-12-22T22:15:13.576Z,25.23
2018-12-22T22:17:41.122Z,21.77
2018-12-22T22:20:08.831Z,21.27
2018-12-22T22:22:36.309Z,19.83
2018-12-22T22:25:04.367Z,23.27
2018-12-22T22:27:31.819Z,30.73
2018-12-22T22:29:59.302Z,21.43
2018-12-22T22:32:26.828Z,31.40
2018-12-22T22:34:54.354Z,17.90
2018-12-22T22:37:21.835Z,17.57
2018-12-22T22:39:49.465Z,10.90
2018-12-22T22:42:17.042Z,22.47
2018-12-22T22:44:44.516Z,20.80
2018-12-22T22:47:11.990Z,15.53
2018-12-22T22:49:39.471Z,18.33
2018-12-22T22:52:06.943Z,15.83
2018-12-22T22:54:34.410Z,28.63
2018-12-22T22:57:01.860Z,16.70
2018-12-22T22:59:29.489Z,11.83
2018-12-22T23:01:56.936Z,14.73
2018-12-22T23:04:24.408Z,35.70
2018-12-22T23:06:51.862Z,13.80
2018-12-22T23:09:19.368Z,15.47
2018-12-22T23:11:46.838Z,18.57
2018-12-22T23:14:14.327Z,19.43
2018-12-22T23:16:41.770Z,13.23
2018-12-22T23:19:09.243Z,10.23
2018-12-22T23:21:36.686Z,17.63
2018-12-22T23:24:04.167Z,23.20
2018-12-22T23:26:31.618Z,17.00
2018-12-22T23:28:59.086Z,25.60
2018-12-22T23:31:26.558Z,26.17
2018-12-22T23:33:54.066Z,17.20
2018-12-22T23:36:21.594Z,35.50
2018-12-22T23:38:49.045Z,11.50
2018-12-22T23:41:16.585Z,10.20
2018-12-22T23:43:44.038Z,29.30
2018-12-22T23:46:11.519Z,12.93
2018-12-22T23:48:38.980Z,13.73
2018-12-22T23:51:06.545Z,9.30
2018-12-22T23:53:34.063Z,14.70
2018-12-22T23:56:01.526Z,17.17
2018-12-22T23:58:28.983Z,13.80
